Time;durP1;ratioP1;P1;durP2;ratioP2;P2;SDS_P1;SDS_P2;PMS_P1;PMS_P2;Temp;Humidity;BMP_temperature;BMP_pressure;BME280_temperature;BME280_humidity;BME280_pressure;Samples;Min_cycle;Max_cycle;Signal;HPM_P1;HPM_P2
2022/09/04 00:00:36;;;;;;;3.25;2.13;;;;;;;17.68;59.44;100144.16;5054460;28;20048;-60
2022/09/04 00:03:18;;;;;;;2.35;2.10;;;;;;;17.64;59.57;100148.88;5059676;28;20060;-60
2022/09/04 00:05:50;;;;;;;3.53;2.40;;;;;;;17.61;59.67;100143.97;5034388;28;20509;-61
2022/09/04 00:08:35;;;;;;;3.75;2.28;;;;;;;17.60;59.83;100159.25;5057691;28;20049;-60
2022/09/04 00:11:11;;;;;;;3.72;2.40;;;;;;;17.54;59.82;100170.00;5053904;28;20060;-60
2022/09/04 00:13:45;;;;;;;4.93;2.08;;;;;;;17.52;59.75;100163.91;5053974;28;20056;-59
2022/09/04 00:16:19;;;;;;;5.95;2.20;;;;;;;17.50;59.54;100171.09;5054181;28;20053;-60
2022/09/04 00:18:53;;;;;;;5.80;2.33;;;;;;;17.47;59.58;100166.19;5053864;28;20477;-59
2022/09/04 00:21:28;;;;;;;2.65;2.08;;;;;;;17.45;59.63;100169.41;5060402;28;20052;-59
2022/09/04 00:23:59;;;;;;;4.13;2.58;;;;;;;17.41;59.53;100174.94;5061885;28;20179;-59
2022/09/04 00:26:39;;;;;;;3.45;2.50;;;;;;;17.41;59.38;100165.69;5053709;28;20048;-59
2022/09/04 00:29:14;;;;;;;4.53;2.25;;;;;;;17.38;59.40;100170.03;5053171;28;20048;-60
2022/09/04 00:31:47;;;;;;;4.03;2.40;;;;;;;17.33;59.51;100175.16;5053821;28;20057;-60
2022/09/04 00:34:32;;;;;;;4.72;2.47;;;;;;;17.30;59.59;100173.88;5062035;28;20060;-59
2022/09/04 00:37:05;;;;;;;3.88;1.95;;;;;;;17.28;59.85;100178.25;5072621;28;20048;-59
2022/09/04 00:39:38;;;;;;;4.93;2.10;;;;;;;17.26;59.74;100181.44;5061252;28;20053;-59
2022/09/04 00:42:22;;;;;;;4.30;2.53;;;;;;;17.21;59.85;100176.91;5053381;28;20067;-59
2022/09/04 00:45:11;;;;;;;3.58;2.30;;;;;;;17.19;59.82;100182.06;5053133;28;20055;-60
2022/09/04 00:47:57;;;;;;;4.07;2.23;;;;;;;17.17;60.06;100190.06;5071177;28;20056;-59
2022/09/04 00:50:39;;;;;;;2.33;1.90;;;;;;;17.13;60.12;100183.53;5056746;28;20076;-60
2022/09/04 00:53:36;;;;;;;3.65;2.33;;;;;;;17.10;60.11;100191.91;5052953;28;20049;-60
2022/09/04 00:56:17;;;;;;;3.55;2.25;;;;;;;17.06;60.32;100191.00;5049768;28;20048;-59
2022/09/04 00:59:00;;;;;;;3.28;2.25;;;;;;;17.04;60.26;100192.19;5053178;28;20048;-59
2022/09/04 01:01:28;;;;;;;3.15;2.22;;;;;;;17.01;60.41;100184.47;5069397;28;20053;-60
2022/09/04 01:04:26;;;;;;;4.68;2.40;;;;;;;16.99;60.92;100188.84;5072924;28;20406;-60
2022/09/04 01:07:15;;;;;;;2.90;2.60;;;;;;;16.93;61.38;100190.31;5053126;28;20053;-60
2022/09/04 01:10:03;;;;;;;2.65;2.20;;;;;;;16.88;61.56;100185.75;5052949;28;20409;-59
2022/09/04 01:12:38;;;;;;;3.08;2.33;;;;;;;16.86;61.26;100188.09;5053427;28;20049;-60
2022/09/04 01:15:15;;;;;;;3.80;2.33;;;;;;;16.83;61.12;100188.84;5050948;28;20064;-60
2022/09/04 01:17:52;;;;;;;2.83;2.53;;;;;;;16.83;61.04;100188.84;5053376;28;20060;-59
2022/09/04 01:20:27;;;;;;;3.65;2.42;;;;;;;16.80;60.76;100189.56;5052917;28;20053;-59
2022/09/04 01:23:22;;;;;;;2.42;2.15;;;;;;;16.78;60.83;100189.91;5052939;28;20049;-59
2022/09/04 01:26:00;;;;;;;3.08;2.50;;;;;;;16.72;60.94;100193.38;5045072;28;20445;-59
2022/09/04 01:28:35;;;;;;;2.72;2.20;;;;;;;16.71;61.19;100192.53;5052022;28;20053;-59
2022/09/04 01:31:12;;;;;;;3.78;2.40;;;;;;;16.60;61.55;100202.69;5061269;28;20045;-60
2022/09/04 01:33:47;;;;;;;3.85;2.47;;;;;;;16.59;61.61;100199.06;5052572;28;20067;-59
2022/09/04 01:36:26;;;;;;;3.15;2.17;;;;;;;16.57;61.48;100195.00;5052128;28;20057;-59
2022/09/04 01:38:57;;;;;;;2.85;2.40;;;;;;;16.58;61.31;100196.63;5052261;28;20060;-60
2022/09/04 01:41:29;;;;;;;5.10;2.45;;;;;;;16.55;61.34;100200.97;5052355;28;20053;-59
2022/09/04 01:43:57;;;;;;;4.22;2.60;;;;;;;16.47;61.46;100199.16;5054778;28;20423;-59
2022/09/04 01:46:45;;;;;;;4.90;2.60;;;;;;;16.49;61.39;100201.63;5062984;28;20060;-59
2022/09/04 01:49:23;;;;;;;3.92;2.70;;;;;;;16.47;61.38;100201.97;5052173;28;20508;-60
2022/09/04 01:51:59;;;;;;;2.67;2.47;;;;;;;16.43;61.77;100203.88;5052276;28;20049;-59
2022/09/04 01:54:42;;;;;;;2.95;2.40;;;;;;;16.38;61.67;100210.56;5052155;28;20057;-60
2022/09/04 01:57:20;;;;;;;3.65;2.35;;;;;;;16.36;61.80;100195.25;5050484;28;20057;-59
2022/09/04 02:00:01;;;;;;;2.90;2.30;;;;;;;16.34;61.88;100200.41;5052479;28;20053;-59
2022/09/04 02:02:40;;;;;;;2.67;2.20;;;;;;;16.34;61.97;100197.59;5052544;28;20497;-60
2022/09/04 02:05:17;;;;;;;3.53;2.50;;;;;;;16.33;61.92;100201.59;5052144;28;20054;-59
2022/09/04 02:07:47;;;;;;;3.00;2.60;;;;;;;16.28;62.08;100201.84;5051113;28;20057;-59
2022/09/04 02:10:30;;;;;;;3.45;2.45;;;;;;;16.23;62.23;100212.19;5051981;28;20422;-59
2022/09/04 02:13:11;;;;;;;2.90;2.60;;;;;;;16.22;62.22;100212.53;5051947;28;20056;-59
2022/09/04 02:15:49;;;;;;;3.00;2.38;;;;;;;16.18;62.60;100209.63;5065615;28;20048;-60
2022/09/04 02:18:30;;;;;;;3.33;2.75;;;;;;;16.17;62.47;100210.81;5055319;28;20053;-59
2022/09/04 02:21:04;;;;;;;4.22;2.50;;;;;;;16.18;62.63;100220.03;5051841;28;20053;-60
2022/09/04 02:23:40;;;;;;;2.70;2.40;;;;;;;16.16;62.46;100223.22;5051978;28;20057;-60
2022/09/04 02:26:15;;;;;;;4.03;2.80;;;;;;;16.11;62.69;100220.66;5051300;28;20413;-59
2022/09/04 02:28:54;;;;;;;3.78;2.70;;;;;;;16.10;62.76;100230.25;5051036;28;20067;-60
2022/09/04 02:31:33;;;;;;;4.10;2.58;;;;;;;16.06;63.13;100229.34;5059585;28;20060;-60
2022/09/04 02:34:06;;;;;;;3.15;2.85;;;;;;;16.01;63.27;100226.78;5051621;28;20049;-59
2022/09/04 02:36:41;;;;;;;3.80;2.65;;;;;;;16.03;63.06;100235.69;5052267;28;20052;-60
2022/09/04 02:39:17;;;;;;;3.10;2.45;;;;;;;16.01;63.26;100240.84;5051799;28;20045;-60
2022/09/04 02:41:53;;;;;;;4.00;2.63;;;;;;;16.02;63.24;100239.66;5051922;28;20509;-59
2022/09/04 02:44:35;;;;;;;4.65;2.70;;;;;;;16.02;63.05;100245.28;5051059;28;20049;-66
2022/09/04 02:47:12;;;;;;;5.20;3.00;;;;;;;15.96;63.34;100241.09;5051927;28;20055;-60
2022/09/04 02:49:51;;;;;;;4.63;2.92;;;;;;;15.90;63.42;100253.75;5051471;28;20076;-60
2022/09/04 02:52:40;;;;;;;5.13;2.72;;;;;;;15.88;63.64;100247.69;5051406;28;20049;-59
2022/09/04 02:55:18;;;;;;;4.75;2.60;;;;;;;15.88;63.64;100242.06;5051447;28;20055;-60
2022/09/04 02:58:02;;;;;;;4.30;2.60;;;;;;;15.85;63.68;100249.19;5056804;28;20053;-59
2022/09/04 03:00:41;;;;;;;5.70;2.83;;;;;;;15.80;63.77;100246.66;5051566;28;20052;-60
2022/09/04 03:03:19;;;;;;;4.38;2.88;;;;;;;15.78;63.95;100252.59;5051106;28;20053;-60
2022/09/04 03:05:55;;;;;;;4.93;2.83;;;;;;;15.77;63.93;100253.78;5051287;28;20053;-60
2022/09/04 03:08:30;;;;;;;3.72;2.70;;;;;;;15.76;63.98;100260.56;5051774;28;20429;-59
2022/09/04 03:11:02;;;;;;;3.53;3.08;;;;;;;15.74;64.03;100262.09;5054255;28;20049;-61
2022/09/04 03:13:35;;;;;;;3.50;2.60;;;;;;;15.73;64.20;100255.69;5055146;28;20057;-60
2022/09/04 03:16:14;;;;;;;3.72;3.35;;;;;;;15.75;64.37;100263.75;5055113;28;20052;-61
2022/09/04 03:19:00;;;;;;;4.80;3.90;;;;;;;15.73;64.34;100258.47;5054797;28;20057;-60
2022/09/04 03:21:34;;;;;;;5.32;3.47;;;;;;;15.73;64.19;100263.28;5055059;28;20057;-59
2022/09/04 03:24:07;;;;;;;2.88;2.60;;;;;;;15.74;64.21;100256.50;5054763;28;20079;-60
2022/09/04 03:26:36;;;;;;;3.22;2.90;;;;;;;15.71;64.34;100272.03;5059858;28;20056;-59
2022/09/04 03:29:20;;;;;;;3.72;2.63;;;;;;;15.67;64.22;100267.47;5071515;28;20485;-59
2022/09/04 03:32:02;;;;;;;2.90;2.60;;;;;;;15.66;64.29;100272.25;5054911;28;20059;-59
2022/09/04 03:34:37;;;;;;;3.50;2.63;;;;;;;15.66;64.45;100280.69;5054704;28;20489;-59
2022/09/04 03:37:16;;;;;;;4.85;2.95;;;;;;;15.63;64.39;100275.78;5054593;28;20482;-60
2022/09/04 03:39:52;;;;;;;3.25;2.83;;;;;;;15.62;64.12;100269.38;5053659;28;20041;-59
2022/09/04 03:42:30;;;;;;;3.88;3.00;;;;;;;15.59;64.12;100270.06;5054907;28;20060;-59
2022/09/04 03:45:09;;;;;;;5.75;2.70;;;;;;;15.58;64.30;100270.41;5054595;28;20049;-59
2022/09/04 03:47:50;;;;;;;4.47;2.20;;;;;;;15.57;63.87;100275.19;5054895;28;20132;-59
2022/09/04 03:50:28;;;;;;;3.28;2.63;;;;;;;15.57;63.92;100277.19;5053836;28;20053;-59
2022/09/04 03:53:06;;;;;;;3.22;2.42;;;;;;;15.57;64.07;100280.81;5054627;28;20079;-59
2022/09/04 03:55:47;;;;;;;3.47;2.70;;;;;;;15.56;63.78;100278.34;5054736;28;20057;-59
2022/09/04 03:58:24;;;;;;;3.63;2.60;;;;;;;15.54;64.12;100277.88;5054216;28;20060;-60
2022/09/04 04:01:04;;;;;;;4.10;2.63;;;;;;;15.54;64.45;100280.69;5053906;28;20041;-59
2022/09/04 04:03:50;;;;;;;3.17;2.50;;;;;;;15.52;64.32;100280.25;5054302;28;20076;-60
2022/09/04 04:06:25;;;;;;;3.00;2.70;;;;;;;15.46;64.69;100279.66;5053699;28;20052;-59
2022/09/04 04:09:10;;;;;;;3.10;2.65;;;;;;;15.46;64.68;100276.06;5056554;28;20055;-59
2022/09/04 04:11:54;;;;;;;3.13;2.58;;;;;;;15.46;64.85;100284.47;5060102;28;20474;-60
2022/09/04 04:14:53;;;;;;;3.42;2.40;;;;;;;15.46;65.02;100287.28;5053891;28;20064;-60
2022/09/04 04:17:38;;;;;;;5.35;2.60;;;;;;;15.44;65.01;100284.81;5054114;28;20053;-60
2022/09/04 04:20:28;;;;;;;5.22;2.53;;;;;;;15.42;64.99;100279.53;5053346;28;20056;-60
2022/09/04 04:23:18;;;;;;;3.75;2.88;;;;;;;15.40;64.78;100287.50;5054026;28;20060;-60
2022/09/04 04:25:59;;;;;;;4.88;2.60;;;;;;;15.40;64.82;100286.69;5018985;28;20049;-61
2022/09/04 04:28:58;;;;;;;3.55;2.65;;;;;;;15.39;64.93;100285.88;5053841;28;20064;-60
2022/09/04 04:31:39;;;;;;;2.78;2.58;;;;;;;15.37;65.05;100284.56;5022998;28;20103;-59
2022/09/04 04:34:13;;;;;;;3.13;2.42;;;;;;;15.36;65.13;100292.19;5053803;28;20413;-59
2022/09/04 04:36:48;;;;;;;2.70;2.35;;;;;;;15.35;64.83;100284.94;5053453;28;20075;-59
2022/09/04 04:39:24;;;;;;;3.17;2.50;;;;;;;15.32;65.04;100301.66;5053176;28;20059;-59
2022/09/04 04:42:16;;;;;;;2.85;2.55;;;;;;;15.31;65.05;100298.03;5052619;28;20048;-59
2022/09/04 04:48:17;;;;;;;4.20;2.50;;;;;;;15.28;64.73;100307.16;5054256;28;20060;-60
2022/09/04 04:50:53;;;;;;;4.72;3.13;;;;;;;15.27;64.95;100311.13;5053224;28;20076;-59
2022/09/04 04:53:30;;;;;;;4.13;3.03;;;;;;;15.26;64.88;100317.09;5052860;28;20059;-59
2022/09/04 04:56:03;;;;;;;4.28;3.15;;;;;;;15.26;64.98;100317.09;5062701;28;20052;-59
2022/09/04 04:58:43;;;;;;;3.55;3.00;;;;;;;15.27;64.84;100327.16;5057403;28;20053;-59
2022/09/04 05:01:25;;;;;;;3.03;2.72;;;;;;;15.27;65.07;100327.97;5052806;28;20061;-59
2022/09/04 05:04:06;;;;;;;3.83;2.75;;;;;;;15.30;65.02;100321.66;5053184;28;20057;-59
2022/09/04 05:06:39;;;;;;;5.50;3.05;;;;;;;15.32;65.09;100327.72;5053202;28;20055;-59
2022/09/04 05:09:16;;;;;;;5.90;2.72;;;;;;;15.34;65.21;100331.00;5051184;28;20056;-59
2022/09/04 05:11:52;;;;;;;6.28;2.72;;;;;;;15.35;65.05;100335.47;5052931;28;20055;-59
2022/09/04 05:14:36;;;;;;;4.18;2.90;;;;;;;15.38;65.19;100331.94;5052572;28;20508;-59
2022/09/04 05:17:14;;;;;;;4.20;2.90;;;;;;;15.37;65.21;100335.94;5052907;28;20052;-59
2022/09/04 05:19:47;;;;;;;4.97;2.92;;;;;;;15.39;65.27;100342.00;5052655;28;20049;-59
2022/09/04 05:22:25;;;;;;;4.22;3.28;;;;;;;15.38;65.30;100350.78;5052764;28;20053;-60
2022/09/04 05:25:04;;;;;;;4.32;3.25;;;;;;;15.43;65.46;100356.97;5051208;28;20052;-60
2022/09/04 05:27:53;;;;;;;4.68;3.55;;;;;;;15.54;65.12;100359.31;5053171;28;20053;-59
2022/09/04 05:30:30;;;;;;;5.00;2.80;;;;;;;15.57;65.03;100353.81;5052657;28;20040;-60
2022/09/04 05:33:03;;;;;;;4.22;2.88;;;;;;;15.62;64.68;100359.22;5051308;28;20056;-59
2022/09/04 05:35:43;;;;;;;3.97;2.50;;;;;;;15.69;64.76;100371.84;5052257;28;20059;-59
2022/09/04 05:38:18;;;;;;;3.20;2.80;;;;;;;15.75;64.61;100373.28;5052008;28;20052;-60
2022/09/04 05:41:01;;;;;;;3.70;2.90;;;;;;;15.78;64.27;100372.56;5049840;28;20044;-59
2022/09/04 05:43:41;;;;;;;3.30;3.00;;;;;;;15.83;64.22;100384.38;5034813;28;20049;-59
2022/09/04 05:46:13;;;;;;;;;;;;;;;15.90;64.00;100378.16;5052403;28;20056;-58
2022/09/04 05:48:50;;;;;;;4.57;2.83;;;;;;;15.99;63.84;100383.66;5052354;28;19920;-58
2022/09/04 05:51:46;;;;;;;4.88;3.35;;;;;;;16.06;63.72;100394.28;5035126;28;20060;-58
2022/09/04 05:54:43;;;;;;;3.58;3.00;;;;;;;16.14;63.57;100394.16;5049653;28;20041;-59
2022/09/04 05:57:22;;;;;;;3.58;3.28;;;;;;;16.19;63.63;100393.94;5046485;28;20053;-60
2022/09/04 06:00:12;;;;;;;3.08;2.58;;;;;;;16.25;63.79;100394.47;5047540;28;20056;-58
2022/09/04 06:03:15;;;;;;;3.13;2.83;;;;;;;16.37;63.38;100396.44;5042328;28;20076;-59
2022/09/04 06:05:50;;;;;;;5.82;3.10;;;;;;;16.51;63.01;100402.50;5048294;28;20411;-60
2022/09/04 06:08:31;;;;;;;5.38;3.30;;;;;;;16.60;62.93;100393.91;5044029;28;20057;-58
2022/09/04 06:11:22;;;;;;;3.10;2.78;;;;;;;16.72;62.55;100402.31;5046909;28;20049;-60
2022/09/04 06:14:06;;;;;;;3.60;2.72;;;;;;;16.87;62.27;100409.19;5049797;28;20053;-59
2022/09/04 06:16:48;;;;;;;4.07;3.00;;;;;;;16.98;62.33;100407.47;5049472;28;20049;-59
2022/09/04 06:19:35;;;;;;;3.65;2.80;;;;;;;17.08;61.76;100408.97;5049830;28;20076;-60
2022/09/04 06:22:32;;;;;;;4.25;2.83;;;;;;;17.23;61.55;100418.63;5045691;28;20080;-59
2022/09/04 06:25:20;;;;;;;4.50;3.05;;;;;;;17.43;61.18;100425.19;5050055;28;20068;-59
2022/09/04 06:28:06;;;;;;;4.95;3.15;;;;;;;17.52;61.00;100422.19;5049938;28;20057;-59
2022/09/04 06:30:43;;;;;;;3.03;2.72;;;;;;;17.70;60.84;100417.00;5050225;28;20053;-59
2022/09/04 06:33:39;;;;;;;3.40;3.00;;;;;;;17.85;60.69;100419.84;5054588;28;20516;-60
2022/09/04 06:36:23;;;;;;;3.28;2.97;;;;;;;18.03;60.16;100425.88;5047284;28;20056;-60
2022/09/04 06:39:04;;;;;;;4.70;3.00;;;;;;;18.17;60.02;100424.59;5036646;28;20045;-59
2022/09/04 06:41:50;;;;;;;4.43;3.08;;;;;;;18.33;59.51;100422.56;5048600;28;20049;-59
2022/09/04 06:44:34;;;;;;;3.58;2.92;;;;;;;18.55;59.88;100423.84;5047680;28;20057;-59
2022/09/04 06:47:16;;;;;;;3.40;2.95;;;;;;;18.65;60.21;100425.28;5060117;28;20394;-60
2022/09/04 06:50:00;;;;;;;3.50;2.97;;;;;;;18.88;59.81;100430.19;5051309;28;20055;-59
2022/09/04 06:52:37;;;;;;;4.05;3.35;;;;;;;19.11;59.50;100427.41;5052966;28;20053;-59
2022/09/04 06:55:14;;;;;;;3.47;2.90;;;;;;;19.30;59.22;100430.22;5053582;28;20057;-59
2022/09/04 06:58:14;;;;;;;5.47;3.40;;;;;;;19.42;57.87;100432.88;5052976;28;20056;-60
2022/09/04 07:00:52;;;;;;;3.30;3.00;;;;;;;19.58;57.38;100429.09;5051319;28;20049;-59
2022/09/04 07:03:45;;;;;;;4.10;2.72;;;;;;;19.76;56.80;100429.41;5052468;28;20060;-59
2022/09/04 07:06:16;;;;;;;3.20;2.78;;;;;;;19.87;56.70;100419.13;5052035;28;20056;-61
2022/09/04 07:08:58;;;;;;;3.67;3.03;;;;;;;20.01;56.58;100427.00;5052821;28;20053;-59
2022/09/04 07:11:43;;;;;;;3.03;2.65;;;;;;;20.16;56.47;100431.69;5049511;28;20048;-59
2022/09/04 07:14:32;;;;;;;3.00;2.70;;;;;;;20.38;55.84;100426.34;5045017;28;20053;-59
2022/09/04 07:17:10;;;;;;;3.30;2.80;;;;;;;20.65;55.62;100427.16;5052826;28;20048;-60
2022/09/04 07:19:51;;;;;;;5.57;2.63;;;;;;;21.23;54.29;100429.47;5051187;28;20494;-60
2022/09/04 07:22:50;;;;;;;3.30;2.40;;;;;;;22.24;52.00;100422.69;5051384;28;20049;-60
2022/09/04 07:25:25;;;;;;;4.43;2.58;;;;;;;23.19;50.32;100442.59;5027017;28;20520;-59
2022/09/04 07:28:11;;;;;;;3.55;2.17;;;;;;;24.21;47.53;100430.94;5050837;28;20401;-60
2022/09/04 07:30:47;;;;;;;2.67;2.17;;;;;;;25.26;45.63;100423.66;5051222;28;20509;-59
2022/09/04 07:33:21;;;;;;;2.97;2.20;;;;;;;26.35;43.74;100430.09;5059572;28;20125;-59
2022/09/04 07:35:57;;;;;;;2.40;2.10;;;;;;;27.55;40.82;100431.06;5048799;28;20048;-59
2022/09/04 07:38:33;;;;;;;5.57;2.17;;;;;;;28.54;39.11;100435.53;5051401;28;20488;-59
2022/09/04 07:41:06;;;;;;;2.67;1.92;;;;;;;29.57;37.30;100434.53;5050992;28;20060;-60
2022/09/04 07:43:39;;;;;;;3.05;2.05;;;;;;;30.43;35.52;100437.28;5051290;28;20413;-59
2022/09/04 07:46:14;;;;;;;3.45;1.77;;;;;;;31.20;33.96;100438.38;5051058;28;20500;-60
2022/09/04 07:48:47;;;;;;;2.65;1.80;;;;;;;32.01;32.88;100432.53;5051469;28;20116;-59
2022/09/04 07:51:18;;;;;;;3.13;1.90;;;;;;;32.79;31.88;100439.66;5051088;28;20049;-61
2022/09/04 07:54:22;;;;;;;4.57;1.98;;;;;;;33.43;30.20;100437.16;5052186;28;20064;-60
2022/09/04 07:57:12;;;;;;;2.20;1.70;;;;;;;34.50;28.91;100437.63;5030151;28;20060;-60
2022/09/04 08:00:07;;;;;;;3.67;1.90;;;;;;;34.90;27.96;100445.34;5051346;28;20045;-60
2022/09/04 08:03:06;;;;;;;2.15;1.50;;;;;;;35.91;26.85;100449.19;5052281;28;20536;-61
2022/09/04 08:05:39;;;;;;;2.45;1.50;;;;;;;36.59;26.43;100445.69;5047290;28;20060;-60
2022/09/04 08:08:51;;;;;;;4.93;1.75;;;;;;;37.03;25.38;100458.69;5051796;28;20462;-60
2022/09/04 08:11:57;;;;;;;2.90;1.52;;;;;;;37.74;25.00;100457.56;5028930;28;20049;-60
2022/09/04 08:14:41;;;;;;;2.33;1.60;;;;;;;37.46;25.11;100454.16;5050814;28;20049;-59
2022/09/04 08:17:42;;;;;;;2.45;1.60;;;;;;;38.51;24.07;100460.50;5052631;28;20057;-60
2022/09/04 08:20:26;;;;;;;1.73;1.50;;;;;;;38.96;23.85;100447.28;5044584;28;20457;-59
2022/09/04 08:23:02;;;;;;;2.08;1.45;;;;;;;39.62;22.70;100455.53;5051475;28;20049;-58
2022/09/04 08:25:43;;;;;;;1.90;1.50;;;;;;;40.33;22.13;100452.84;5048624;28;20128;-59
2022/09/04 08:28:25;;;;;;;2.10;1.67;;;;;;;41.32;21.00;100454.97;5049354;28;20056;-60
2022/09/04 08:31:06;;;;;;;2.97;1.67;;;;;;;41.94;19.95;100455.72;5048178;28;20056;-59
2022/09/04 08:34:01;;;;;;;3.05;1.80;;;;;;;41.84;19.94;100466.09;5050366;28;20052;-59
2022/09/04 08:36:46;;;;;;;2.47;1.50;;;;;;;42.39;20.08;100464.34;5043733;28;20048;-60
2022/09/04 08:39:23;;;;;;;1.65;1.48;;;;;;;43.40;18.68;100471.00;5050326;28;20401;-59
2022/09/04 08:42:33;;;;;;;2.67;1.70;;;;;;;44.10;17.77;100458.88;5053938;28;20494;-60
2022/09/04 08:45:46;;;;;;;2.53;1.42;;;;;;;44.77;17.12;100458.03;5049111;28;20056;-60
2022/09/04 08:48:47;;;;;;;3.25;1.90;;;;;;;45.02;16.93;100454.97;5048691;28;20049;-59
2022/09/04 08:51:58;;;;;;;2.10;1.73;;;;;;;44.55;17.31;100465.00;5038675;28;20056;-59
2022/09/04 08:54:55;;;;;;;2.58;1.50;;;;;;;45.49;16.91;100466.28;5048750;28;20057;-60
2022/09/04 08:57:53;;;;;;;1.98;1.77;;;;;;;45.52;16.75;100465.13;5045385;28;20044;-61
2022/09/04 09:00:31;;;;;;;2.13;1.90;;;;;;;46.44;15.75;100456.19;5048023;28;20060;-59
2022/09/04 09:03:38;;;;;;;3.25;1.80;;;;;;;46.17;15.82;100456.97;5050169;28;20404;-59
2022/09/04 09:06:23;;;;;;;;;;;;;;;46.63;15.89;100450.94;5033213;28;20045;-59
2022/09/04 09:09:43;;;;;;;3.22;2.00;;;;;;;47.07;15.06;100460.09;5048059;28;19921;-59
2022/09/04 09:12:44;;;;;;;2.80;2.50;;;;;;;47.34;14.94;100468.88;5040782;28;20053;-59
2022/09/04 09:15:40;;;;;;;2.40;2.10;;;;;;;46.97;15.22;100464.91;5021290;28;20048;-59
2022/09/04 09:18:31;;;;;;;2.97;1.75;;;;;;;47.22;14.99;100467.56;5049498;28;20060;-59
2022/09/04 09:21:07;;;;;;;2.40;1.70;;;;;;;47.65;14.97;100463.25;5043563;28;20057;-59
2022/09/04 09:23:43;;;;;;;3.60;1.92;;;;;;;48.01;14.30;100469.25;5049079;28;20063;-59
2022/09/04 09:26:29;;;;;;;2.65;2.00;;;;;;;48.91;14.19;100466.56;5046549;28;20064;-59
2022/09/04 09:29:24;;;;;;;2.10;1.77;;;;;;;48.88;14.22;100464.78;5047775;28;20501;-59
2022/09/04 09:32:25;;;;;;;1.98;1.73;;;;;;;48.65;13.97;100458.00;5050566;28;20053;-60
2022/09/04 09:35:37;;;;;;;3.35;2.00;;;;;;;48.93;13.66;100468.91;5049682;28;20049;-59
2022/09/04 09:38:25;;;;;;;2.17;1.73;;;;;;;47.25;15.13;100467.22;4986530;28;20074;-59
2022/09/04 09:41:23;;;;;;;3.00;1.98;;;;;;;48.20;14.29;100457.16;5042083;28;20497;-60
2022/09/04 09:44:25;;;;;;;2.75;1.95;;;;;;;48.15;14.32;100461.06;5051732;28;20049;-59
2022/09/04 09:47:29;;;;;;;2.15;1.90;;;;;;;48.00;14.29;100461.75;4979658;28;20057;-59
2022/09/04 09:50:31;;;;;;;2.10;1.90;;;;;;;48.25;14.42;100462.09;5050995;28;20065;-59
2022/09/04 09:53:38;;;;;;;2.97;2.15;;;;;;;48.44;14.03;100461.03;5049204;28;20067;-59
2022/09/04 09:56:28;;;;;;;;;;;;;;;47.37;15.16;100458.84;5037319;28;20155;-59
2022/09/04 09:59:26;;;;;;;2.05;1.73;;;;;;;48.81;13.67;100447.00;5039171;28;20408;-59
2022/09/04 10:02:18;;;;;;;2.13;1.90;;;;;;;49.30;13.26;100443.75;5031813;28;20474;-59
2022/09/04 10:05:15;;;;;;;2.10;1.90;;;;;;;48.72;13.83;100442.44;5036375;28;20049;-58
2022/09/04 10:08:12;;;;;;;2.65;2.20;;;;;;;49.61;12.99;100448.94;5031687;28;20059;-60
2022/09/04 10:11:04;;;;;;;2.72;2.05;;;;;;;49.60;13.48;100448.13;5048847;28;20053;-58
2022/09/04 10:14:01;;;;;;;3.25;2.55;;;;;;;49.04;13.19;100453.00;5047302;28;20049;-59
2022/09/04 10:16:59;;;;;;;2.55;2.35;;;;;;;49.57;13.25;100440.44;5048926;28;20053;-59
2022/09/04 10:19:46;;;;;;;2.58;2.13;;;;;;;49.84;13.26;100446.75;5037308;28;20045;-60
2022/09/04 10:22:40;;;;;;;3.30;2.22;;;;;;;49.29;13.47;100451.06;5054797;28;20048;-60
2022/09/04 10:25:29;;;;;;;3.17;1.75;;;;;;;49.66;12.91;100450.91;5066163;28;20063;-59
2022/09/04 10:28:24;;;;;;;2.88;1.85;;;;;;;49.41;13.08;100460.38;5055938;28;20067;-59
2022/09/04 10:31:34;;;;;;;1.70;1.60;;;;;;;46.87;14.92;100460.88;5055501;28;20061;-58
2022/09/04 10:34:22;;;;;;;2.53;1.75;;;;;;;44.80;16.90;100453.16;5055553;28;20497;-59
2022/09/04 10:37:04;;;;;;;4.20;2.55;;;;;;;43.54;17.60;100463.16;5054845;28;20064;-59
2022/09/04 10:42:50;;;;;;;3.28;2.45;;;;;;;41.96;19.63;100461.81;5057075;28;20067;-59
2022/09/04 10:45:26;;;;;;;4.13;2.50;;;;;;;42.84;18.47;100460.47;5055436;28;20049;-59
2022/09/04 10:48:32;;;;;;;3.63;2.20;;;;;;;43.68;17.51;100455.28;5055903;28;20049;-59
2022/09/04 10:51:32;;;;;;;5.20;2.00;;;;;;;43.00;17.92;100455.03;5055932;28;20053;-59
2022/09/04 10:54:20;;;;;;;2.58;2.00;;;;;;;41.10;20.01;100456.53;5031290;28;20072;-59
2022/09/04 10:57:01;;;;;;;3.63;2.30;;;;;;;40.35;20.74;100465.56;5054943;28;20049;-59
2022/09/04 10:59:53;;;;;;;2.45;1.75;;;;;;;39.27;21.30;100471.13;5054637;28;20052;-59
2022/09/04 11:02:53;;;;;;;2.28;1.90;;;;;;;38.57;22.31;100464.28;5047133;28;20478;-59
2022/09/04 11:05:40;;;;;;;3.67;2.60;;;;;;;38.96;22.44;100461.03;5028515;28;20418;-58
2022/09/04 11:08:26;;;;;;;3.38;2.10;;;;;;;40.15;21.72;100451.13;5054659;28;20056;-59
2022/09/04 11:11:15;;;;;;;3.72;2.30;;;;;;;41.46;19.35;100448.06;5054361;28;20057;-58
2022/09/04 11:14:27;;;;;;;2.13;1.83;;;;;;;42.06;19.43;100450.63;5069746;28;20068;-59
2022/09/04 11:17:24;;;;;;;3.28;1.85;;;;;;;41.09;19.65;100446.13;5036629;28;20048;-58
2022/09/04 11:20:25;;;;;;;2.83;2.53;;;;;;;40.10;21.22;100449.78;5054491;28;20065;-58
2022/09/04 11:23:25;;;;;;;2.70;2.10;;;;;;;39.03;22.34;100445.22;5050878;28;20142;-59
2022/09/04 11:26:25;;;;;;;2.47;2.13;;;;;;;38.27;22.71;100451.97;5054313;28;20060;-58
2022/09/04 11:29:18;;;;;;;2.55;2.10;;;;;;;38.18;22.70;100452.94;5054545;28;20064;-58
2022/09/04 11:32:05;;;;;;;2.53;2.15;;;;;;;37.46;23.76;100450.47;5053485;28;20514;-59
2022/09/04 11:35:12;;;;;;;2.35;2.15;;;;;;;37.03;24.32;100461.59;5054025;28;20056;-58
2022/09/04 11:38:02;;;;;;;3.53;2.17;;;;;;;36.41;25.17;100452.41;5044386;28;20053;-58
2022/09/04 11:41:04;;;;;;;3.60;2.13;;;;;;;36.15;25.36;100457.94;5054050;28;20060;-59
2022/09/04 11:43:55;;;;;;;5.93;2.70;;;;;;;35.88;25.40;100450.97;5053849;28;20132;-59
2022/09/04 11:46:46;;;;;;;3.50;2.58;;;;;;;35.40;25.92;100447.94;5054241;28;20053;-59
2022/09/04 11:49:42;;;;;;;3.28;2.45;;;;;;;35.04;26.83;100446.75;5053042;28;20048;-59
2022/09/04 11:52:25;;;;;;;3.55;2.55;;;;;;;35.33;26.07;100449.09;5054136;28;20076;-59
2022/09/04 11:55:25;;;;;;;2.92;2.35;;;;;;;35.33;26.73;100457.78;5053889;28;20538;-59
2022/09/04 11:58:11;;;;;;;2.72;2.28;;;;;;;35.13;26.91;100452.53;5044184;28;20049;-58
2022/09/04 12:00:50;;;;;;;3.20;2.25;;;;;;;34.73;26.47;100450.66;5053170;28;20080;-58
2022/09/04 12:03:48;;;;;;;3.05;2.20;;;;;;;34.57;27.73;100443.06;5053441;28;20055;-58
2022/09/04 12:06:26;;;;;;;;;;;;;;;33.94;28.76;100459.84;5072638;28;20057;-58
2022/09/04 12:09:21;;;;;;;2.63;1.92;;;;;;;33.69;29.28;100458.00;5061888;28;19921;-58
2022/09/04 12:12:10;;;;;;;3.85;2.42;;;;;;;33.30;29.58;100463.22;5053932;28;20053;-58
2022/09/04 12:14:57;;;;;;;4.15;2.35;;;;;;;33.20;29.99;100458.72;5065184;28;20048;-58
2022/09/04 12:17:55;;;;;;;3.80;2.40;;;;;;;33.08;29.86;100474.03;5073829;28;20053;-59
2022/09/04 12:20:52;;;;;;;3.13;2.33;;;;;;;33.01;30.31;100475.06;5033563;28;20068;-58
2022/09/04 12:24:04;;;;;;;2.85;2.10;;;;;;;33.15;29.64;100473.75;5035726;28;20056;-58
2022/09/04 12:27:00;;;;;;;2.65;2.08;;;;;;;34.10;28.18;100460.84;5050103;28;20056;-59
2022/09/04 12:29:51;;;;;;;2.55;2.22;;;;;;;33.76;29.05;100466.34;5054557;28;20060;-58
2022/09/04 12:32:54;;;;;;;3.30;2.15;;;;;;;33.69;28.98;100468.75;5053203;28;20485;-58
2022/09/04 12:35:42;;;;;;;2.70;2.08;;;;;;;33.35;29.49;100470.50;5024183;28;20048;-58
2022/09/04 12:38:26;;;;;;;2.40;2.10;;;;;;;33.25;29.72;100475.41;5045758;28;20044;-58
2022/09/04 12:41:02;;;;;;;3.40;2.30;;;;;;;32.98;30.26;100470.22;5045496;28;20048;-60
2022/09/04 12:43:44;;;;;;;3.42;2.70;;;;;;;32.85;30.95;100466.63;5051115;28;20406;-53
2022/09/04 12:46:26;;;;;;;3.47;2.00;;;;;;;32.78;30.95;100472.63;5051944;28;20052;-58
2022/09/04 12:49:09;;;;;;;3.67;2.45;;;;;;;32.69;30.99;100476.25;5051614;28;20057;-58
2022/09/04 12:51:48;;;;;;;4.70;2.30;;;;;;;32.62;31.19;100479.41;5050454;28;20056;-57
2022/09/04 12:54:32;;;;;;;4.75;2.13;;;;;;;32.86;30.48;100480.56;5050964;28;20414;-58